Time;durP1;ratioP1;P1;durP2;ratioP2;P2;SDS_P1;SDS_P2;PMS_P1;PMS_P2;Temp;Humidity;BMP_temperature;BMP_pressure;BME280_temperature;BME280_humidity;BME280_pressure;Samples;Min_cycle;Max_cycle;Signal;HPM_P1;HPM_P2
2021/08/27 00:00:36;;;;;;;3.80;1.00;;;15.10;99.90;;;;;;5015569;28;20193;-79
2021/08/27 00:03:02;;;;;;;3.50;1.00;;;15.10;99.90;;;;;;4999184;28;20573;-80
2021/08/27 00:05:28;;;;;;;4.80;1.00;;;15.10;99.90;;;;;;5033141;28;20580;-80
2021/08/27 00:07:53;;;;;;;3.73;1.23;;;15.00;99.90;;;;;;5015262;28;20201;-80
2021/08/27 00:10:19;;;;;;;4.90;0.97;;;15.10;99.90;;;;;;5034168;28;20181;-80
2021/08/27 00:12:45;;;;;;;4.57;0.97;;;15.00;99.90;;;;;;5035038;28;20510;-79
2021/08/27 00:15:11;;;;;;;6.33;1.60;;;15.00;99.90;;;;;;5035114;28;20166;-80
2021/08/27 00:17:40;;;;;;;1.50;0.80;;;15.00;99.90;;;;;;5032853;28;20169;-80
2021/08/27 00:20:07;;;;;;;3.80;1.00;;;15.00;99.90;;;;;;5032976;28;20658;-80
2021/08/27 00:22:34;;;;;;;4.07;1.00;;;15.00;99.90;;;;;;4998822;28;20987;-80
2021/08/27 00:24:59;;;;;;;2.50;0.83;;;15.00;99.90;;;;;;5032541;28;20177;-81
2021/08/27 00:27:25;;;;;;;3.77;0.90;;;15.10;99.90;;;;;;5037643;28;20580;-80
2021/08/27 00:29:54;;;;;;;1.43;0.80;;;15.10;99.90;;;;;;4998851;28;20190;-80
2021/08/27 00:32:19;;;;;;;4.50;0.70;;;15.10;99.90;;;;;;5014339;28;20256;-79
2021/08/27 00:34:45;;;;;;;3.00;0.90;;;15.20;99.90;;;;;;5021166;28;20641;-79
2021/08/27 00:37:11;;;;;;;3.93;0.90;;;15.20;99.90;;;;;;4979726;28;20261;-80
2021/08/27 00:39:36;;;;;;;2.00;1.00;;;15.30;99.90;;;;;;5000962;28;20198;-80
2021/08/27 00:42:03;;;;;;;2.90;0.70;;;15.30;99.90;;;;;;5004573;28;20324;-80
2021/08/27 00:44:29;;;;;;;1.87;0.73;;;15.30;99.90;;;;;;5010043;28;20182;-80
2021/08/27 00:46:55;;;;;;;6.73;1.63;;;15.40;99.90;;;;;;4989510;28;20592;-80
2021/08/27 00:49:21;;;;;;;2.53;0.70;;;15.40;99.90;;;;;;5007978;28;20631;-81
2021/08/27 00:51:46;;;;;;;2.63;0.90;;;15.40;99.90;;;;;;5033465;28;20174;-80
2021/08/27 00:54:13;;;;;;;1.97;0.70;;;15.40;99.90;;;;;;5014649;28;20182;-80
2021/08/27 00:56:39;;;;;;;4.50;0.87;;;15.50;99.90;;;;;;5012903;28;20569;-78
2021/08/27 00:59:05;;;;;;;4.47;0.67;;;15.50;99.90;;;;;;5009203;28;20596;-79
2021/08/27 01:01:31;;;;;;;1.87;0.70;;;15.50;99.90;;;;;;5023990;28;20251;-79
2021/08/27 01:03:58;;;;;;;2.50;0.70;;;15.50;99.90;;;;;;5030610;28;20171;-81
2021/08/27 01:06:42;;;;;;;3.07;0.70;;;15.50;99.90;;;;;;5019050;28;20180;-79
2021/08/27 01:09:49;;;;;;;5.37;0.70;;;15.60;99.90;;;;;;5006233;28;20678;-79
2021/08/27 01:12:33;;;;;;;1.30;0.70;;;15.60;99.90;;;;;;5026958;28;20588;-79
2021/08/27 01:15:17;;;;;;;3.87;0.73;;;15.60;99.90;;;;;;5013533;28;20576;-79
2021/08/27 01:17:59;;;;;;;2.30;0.70;;;15.60;99.90;;;;;;5031764;28;20924;-80
2021/08/27 01:20:49;;;;;;;3.20;0.70;;;15.60;99.90;;;;;;5014038;28;20620;-80
2021/08/27 01:23:30;;;;;;;3.77;0.70;;;15.60;99.90;;;;;;5013852;28;20581;-80
2021/08/27 01:25:58;;;;;;;3.73;0.87;;;15.60;99.90;;;;;;5013867;28;20920;-80
2021/08/27 01:28:26;;;;;;;1.90;0.70;;;15.70;99.90;;;;;;5031777;28;20612;-80
2021/08/27 01:30:59;;;;;;;7.53;0.90;;;15.70;99.90;;;;;;5031588;28;20272;-81
2021/08/27 01:33:26;;;;;;;3.53;2.90;;;15.70;99.90;;;;;;5031675;28;20568;-80
2021/08/27 01:35:59;;;;;;;2.57;0.70;;;15.70;99.90;;;;;;5031378;28;20584;-79
2021/08/27 01:38:28;;;;;;;2.20;1.00;;;15.70;99.90;;;;;;5032795;28;20668;-79
2021/08/27 01:40:55;;;;;;;1.50;0.70;;;15.70;99.90;;;;;;5036758;28;20580;-79
2021/08/27 01:43:24;;;;;;;2.63;1.00;;;15.70;99.90;;;;;;5013652;28;20574;-79
2021/08/27 01:45:52;;;;;;;3.73;0.90;;;15.70;99.90;;;;;;5031125;28;20604;-80
2021/08/27 01:48:19;;;;;;;2.07;0.70;;;15.60;99.90;;;;;;5031528;28;20604;-80
2021/08/27 01:50:46;;;;;;;3.33;0.80;;;15.60;99.90;;;;;;5031318;28;20604;-79
2021/08/27 01:53:16;;;;;;;3.13;0.80;;;15.60;99.90;;;;;;5031633;28;20817;-80
2021/08/27 01:55:44;;;;;;;2.77;0.70;;;15.50;99.90;;;;;;5031021;28;20639;-80
2021/08/27 01:58:10;;;;;;;2.80;0.70;;;15.50;99.90;;;;;;4997224;28;20576;-81
2021/08/27 02:00:36;;;;;;;4.00;2.20;;;15.50;99.90;;;;;;5012976;28;20620;-80
2021/08/27 02:03:04;;;;;;;2.90;0.70;;;15.40;99.90;;;;;;5013920;28;20177;-80
2021/08/27 02:05:30;;;;;;;3.20;0.80;;;15.40;99.90;;;;;;5030971;28;20596;-80
2021/08/27 02:07:58;;;;;;;2.37;0.70;;;15.40;99.90;;;;;;5013345;28;21039;-80
2021/08/27 02:10:24;;;;;;;3.63;0.80;;;15.40;99.90;;;;;;5013565;28;20604;-80
2021/08/27 02:12:50;;;;;;;2.10;0.60;;;15.30;99.90;;;;;;5031590;28;20565;-81
2021/08/27 02:15:19;;;;;;;4.73;1.03;;;15.30;99.90;;;;;;5031852;28;20197;-79
2021/08/27 02:17:45;;;;;;;2.90;0.80;;;15.30;99.90;;;;;;5038039;28;20931;-79
2021/08/27 02:20:11;;;;;;;2.67;0.70;;;15.30;99.90;;;;;;5013840;28;20620;-79
2021/08/27 02:22:37;;;;;;;2.03;0.63;;;15.20;99.90;;;;;;5031031;28;20576;-80
2021/08/27 02:25:20;;;;;;;3.17;0.80;;;15.20;99.90;;;;;;5013353;28;20644;-81
2021/08/27 02:27:47;;;;;;;2.35;0.80;;;15.20;99.90;;;;;;5013300;28;20197;-79
2021/08/27 02:30:15;;;;;;;4.45;0.73;;;15.20;99.90;;;;;;5031134;28;20216;-79
2021/08/27 02:32:43;;;;;;;2.97;0.93;;;15.10;99.90;;;;;;5013582;28;20170;-79
2021/08/27 02:35:11;;;;;;;6.93;0.80;;;15.10;99.90;;;;;;5013457;28;20552;-79
2021/08/27 02:37:40;;;;;;;2.55;1.00;;;15.00;99.90;;;;;;5030848;28;20189;-80
2021/08/27 02:40:07;;;;;;;1.87;0.90;;;15.00;99.90;;;;;;5031110;28;20737;-80
2021/08/27 02:42:33;;;;;;;3.37;0.80;;;15.00;99.90;;;;;;5030832;28;20582;-80
2021/08/27 02:45:00;;;;;;;2.47;0.60;;;14.90;99.90;;;;;;5031033;28;20557;-80
2021/08/27 02:47:27;;;;;;;1.90;0.70;;;14.90;99.90;;;;;;5013234;28;20257;-80
2021/08/27 02:49:53;;;;;;;1.70;0.70;;;14.90;99.90;;;;;;5013312;28;20202;-80
2021/08/27 02:52:22;;;;;;;4.33;0.90;;;15.00;99.90;;;;;;5031675;28;20569;-81
2021/08/27 02:55:02;;;;;;;2.50;0.70;;;15.00;99.90;;;;;;5035017;28;20311;-80
2021/08/27 02:57:40;;;;;;;3.25;0.75;;;15.00;99.90;;;;;;5034706;28;20629;-80
2021/08/27 03:00:06;;;;;;;2.30;0.70;;;15.10;99.90;;;;;;5016602;28;20542;-81
2021/08/27 03:02:33;;;;;;;1.83;0.77;;;15.10;99.90;;;;;;5000573;28;20193;-80
2021/08/27 03:05:23;;;;;;;6.23;0.80;;;15.20;99.90;;;;;;5034007;28;20946;-81
2021/08/27 03:07:56;;;;;;;5.37;0.87;;;15.20;99.90;;;;;;5007095;28;20640;-81
2021/08/27 03:10:34;;;;;;;2.67;0.80;;;15.30;99.90;;;;;;5034214;28;20623;-80
2021/08/27 03:13:05;;;;;;;3.80;1.00;;;15.30;99.90;;;;;;5034308;28;20175;-80
2021/08/27 03:16:00;;;;;;;4.40;1.43;;;15.40;99.90;;;;;;5033773;28;21135;-79
2021/08/27 03:18:33;;;;;;;3.23;1.07;;;15.30;99.90;;;;;;5034154;28;20579;-80
2021/08/27 03:21:17;;;;;;;1.73;0.80;;;15.40;99.90;;;;;;5036258;23;20655;-77
2021/08/27 03:23:47;;;;;;;2.63;0.80;;;15.40;99.90;;;;;;5015888;28;20599;-77
2021/08/27 03:26:18;;;;;;;2.40;1.23;;;15.50;99.90;;;;;;5024545;28;20628;-77
2021/08/27 03:28:48;;;;;;;4.63;0.90;;;15.50;99.90;;;;;;5034177;28;20651;-78
2021/08/27 03:31:15;;;;;;;3.23;0.70;;;15.50;99.90;;;;;;5033945;28;20588;-78
2021/08/27 03:33:40;;;;;;;1.97;0.70;;;15.40;99.90;;;;;;5034226;28;20638;-78
2021/08/27 03:36:08;;;;;;;5.20;0.80;;;15.40;99.90;;;;;;5015918;28;20634;-76
2021/08/27 03:38:36;;;;;;;2.93;0.70;;;15.40;99.90;;;;;;5005426;28;20911;-76
2021/08/27 03:41:02;;;;;;;3.47;0.87;;;15.40;99.90;;;;;;5033665;28;20639;-76
2021/08/27 03:43:31;;;;;;;4.05;0.70;;;15.40;99.90;;;;;;5033935;28;20604;-77
2021/08/27 03:45:59;;;;;;;5.07;0.90;;;15.40;99.90;;;;;;5033393;28;20641;-77
2021/08/27 03:48:25;;;;;;;3.10;0.80;;;15.40;99.90;;;;;;5033635;28;20634;-77
2021/08/27 03:50:54;;;;;;;3.83;1.13;;;15.40;99.90;;;;;;5015926;28;20597;-77
2021/08/27 03:53:21;;;;;;;2.60;0.90;;;15.40;99.90;;;;;;5016104;28;20162;-76
2021/08/27 03:55:50;;;;;;;2.23;0.67;;;15.40;99.90;;;;;;5015490;28;20630;-79
2021/08/27 03:58:20;;;;;;;4.93;1.77;;;15.30;99.90;;;;;;5033459;28;20615;-77
2021/08/27 04:00:46;;;;;;;5.00;0.90;;;15.30;99.90;;;;;;5033784;28;20898;-76
2021/08/27 04:03:12;;;;;;;3.00;1.00;;;15.30;99.90;;;;;;5033398;28;21138;-77
2021/08/27 04:05:55;;;;;;;3.63;1.20;;;15.30;99.90;;;;;;5015385;28;20583;-76
2021/08/27 04:08:21;;;;;;;2.13;0.70;;;15.40;99.90;;;;;;5027536;28;20639;-76
2021/08/27 04:10:47;;;;;;;6.80;1.10;;;15.40;99.90;;;;;;5025029;28;20182;-77
2021/08/27 04:13:12;;;;;;;2.23;0.70;;;15.40;99.90;;;;;;5033656;28;20249;-77
2021/08/27 04:15:38;;;;;;;4.67;1.77;;;15.50;99.90;;;;;;5019887;28;20176;-77
2021/08/27 04:18:03;;;;;;;3.93;0.77;;;15.50;99.90;;;;;;5015663;28;20605;-76
2021/08/27 04:20:29;;;;;;;5.60;0.90;;;15.50;99.90;;;;;;5015295;28;20606;-76
2021/08/27 04:22:55;;;;;;;9.40;1.47;;;15.50;99.90;;;;;;5032894;28;20173;-76
2021/08/27 04:25:21;;;;;;;4.33;1.10;;;15.60;99.90;;;;;;5032762;28;20166;-76
2021/08/27 04:27:46;;;;;;;4.23;1.00;;;15.60;99.90;;;;;;5032903;28;20197;-76
2021/08/27 04:30:12;;;;;;;2.90;0.87;;;15.60;99.90;;;;;;5015534;28;20581;-77
2021/08/27 04:32:38;;;;;;;6.18;0.82;;;15.70;99.90;;;;;;5033215;28;20193;-76
2021/08/27 04:35:04;;;;;;;5.60;1.10;;;15.70;99.90;;;;;;5032494;28;20158;-77
2021/08/27 04:37:31;;;;;;;4.50;0.80;;;15.70;99.90;;;;;;5015211;28;20658;-77
2021/08/27 04:39:57;;;;;;;4.00;0.70;;;15.80;99.90;;;;;;5015067;28;20569;-76
2021/08/27 04:42:22;;;;;;;3.20;0.80;;;15.80;99.90;;;;;;4998873;28;20576;-76
2021/08/27 04:44:48;;;;;;;2.10;0.70;;;15.80;99.90;;;;;;5033177;28;20169;-77
2021/08/27 04:47:14;;;;;;;7.13;1.00;;;15.80;99.90;;;;;;4999131;28;20588;-77
2021/08/27 04:49:40;;;;;;;4.60;0.70;;;15.80;99.90;;;;;;5034024;28;20616;-77
2021/08/27 04:52:06;;;;;;;3.10;0.90;;;15.80;99.90;;;;;;5041316;28;20577;-77
2021/08/27 04:54:32;;;;;;;3.87;0.90;;;15.80;99.90;;;;;;5034300;28;20174;-77
2021/08/27 04:56:58;;;;;;;2.60;1.17;;;15.90;99.90;;;;;;5038419;28;20564;-77
2021/08/27 04:59:24;;;;;;;3.87;0.80;;;15.90;99.90;;;;;;5035843;28;20568;-76
2021/08/27 05:01:49;;;;;;;2.93;1.07;;;16.00;99.90;;;;;;5053416;28;20277;-76
2021/08/27 05:04:15;;;;;;;5.40;1.40;;;16.00;99.90;;;;;;5019780;28;20182;-76
2021/08/27 05:06:41;;;;;;;7.10;1.43;;;16.00;99.90;;;;;;5053981;28;20162;-76
2021/08/27 05:09:07;;;;;;;3.80;0.90;;;16.10;99.90;;;;;;5034336;28;20232;-75
2021/08/27 05:11:33;;;;;;;3.53;1.13;;;16.10;99.90;;;;;;5034108;28;20201;-76
2021/08/27 05:13:59;;;;;;;4.30;1.00;;;16.10;99.90;;;;;;5033598;28;20572;-76
2021/08/27 05:16:24;;;;;;;2.67;0.80;;;16.10;99.90;;;;;;5015186;28;20183;-76
2021/08/27 05:18:50;;;;;;;5.10;1.00;;;16.10;99.90;;;;;;5014369;28;20177;-77
2021/08/27 05:21:16;;;;;;;4.53;0.90;;;16.20;99.90;;;;;;5032623;28;20285;-77
2021/08/27 05:23:43;;;;;;;2.67;0.87;;;16.20;99.90;;;;;;4998746;28;20184;-76
2021/08/27 05:26:08;;;;;;;2.20;1.03;;;16.20;99.90;;;;;;5032233;28;20921;-77
2021/08/27 05:28:34;;;;;;;5.60;0.80;;;16.20;99.90;;;;;;5016991;28;20628;-77
2021/08/27 05:31:00;;;;;;;7.90;1.03;;;16.30;99.90;;;;;;4998081;28;20182;-77
2021/08/27 05:33:26;;;;;;;2.27;0.80;;;16.30;99.90;;;;;;5014583;28;20170;-77
2021/08/27 05:35:52;;;;;;;4.23;1.00;;;16.30;99.90;;;;;;5014052;28;20572;-77
2021/08/27 05:38:18;;;;;;;3.57;1.10;;;16.40;99.90;;;;;;5013982;28;20173;-77
2021/08/27 05:40:43;;;;;;;7.00;1.50;;;16.40;99.90;;;;;;5031671;28;20185;-77
2021/08/27 05:43:09;;;;;;;5.33;1.57;;;16.40;99.90;;;;;;4981412;28;20204;-77
2021/08/27 05:45:35;;;;;;;4.90;1.00;;;16.50;99.90;;;;;;5031245;28;20576;-78
2021/08/27 05:48:01;;;;;;;2.37;0.80;;;16.50;99.90;;;;;;4997494;28;20201;-77
2021/08/27 05:50:26;;;;;;;2.10;0.70;;;16.50;99.90;;;;;;5013789;28;20511;-77
2021/08/27 05:52:52;;;;;;;3.13;0.70;;;16.60;99.90;;;;;;5031869;28;20568;-77
2021/08/27 05:55:19;;;;;;;4.50;1.37;;;16.60;99.90;;;;;;5031372;28;20256;-77
2021/08/27 05:57:44;;;;;;;3.40;1.10;;;16.70;99.90;;;;;;5013909;28;20255;-77
2021/08/27 06:00:11;;;;;;;3.43;0.90;;;16.70;99.90;;;;;;5031386;28;21190;-77
2021/08/27 06:02:36;;;;;;;3.67;0.90;;;16.70;99.90;;;;;;4997261;28;20193;-78
2021/08/27 06:05:03;;;;;;;4.05;1.30;;;16.70;99.90;;;;;;5035400;28;20717;-78
2021/08/27 06:07:29;;;;;;;2.00;0.90;;;16.60;99.90;;;;;;4981335;28;20174;-79
2021/08/27 06:09:55;;;;;;;4.55;1.70;;;16.70;99.90;;;;;;5013361;28;20714;-78
2021/08/27 06:12:21;;;;;;;2.80;0.93;;;16.70;99.90;;;;;;5017597;28;20182;-79
2021/08/27 06:14:46;;;;;;;2.50;1.13;;;16.80;99.90;;;;;;5014419;28;20664;-79
2021/08/27 06:17:12;;;;;;;1.60;0.80;;;16.90;99.90;;;;;;5013460;28;20170;-79
2021/08/27 06:19:38;;;;;;;3.90;1.00;;;17.00;99.90;;;;;;5000324;28;20178;-80
2021/08/27 06:22:04;;;;;;;1.60;0.90;;;17.10;99.90;;;;;;4999631;28;20295;-79
2021/08/27 06:24:30;;;;;;;2.73;1.10;;;17.20;99.90;;;;;;5019476;28;20523;-79
2021/08/27 06:26:56;;;;;;;3.33;0.90;;;17.30;99.90;;;;;;5014924;28;20573;-79
2021/08/27 06:29:22;;;;;;;3.70;1.17;;;17.40;99.90;;;;;;5018339;28;20620;-80
2021/08/27 06:31:48;;;;;;;3.63;1.10;;;17.50;99.90;;;;;;5036521;28;20619;-77
2021/08/27 06:34:14;;;;;;;4.73;1.00;;;17.50;99.90;;;;;;5023307;28;20592;-78
2021/08/27 06:36:39;;;;;;;3.60;1.10;;;17.60;99.90;;;;;;5027360;28;20569;-79
2021/08/27 06:39:05;;;;;;;2.53;0.90;;;17.60;99.90;;;;;;5010723;28;20183;-78
2021/08/27 06:41:31;;;;;;;2.40;0.83;;;17.60;99.90;;;;;;5031829;28;20213;-77
2021/08/27 06:43:57;;;;;;;2.83;1.00;;;17.60;99.90;;;;;;5034777;28;20170;-76
2021/08/27 06:46:26;;;;;;;3.93;1.60;;;17.60;99.90;;;;;;5015297;28;20178;-78
2021/08/27 06:48:52;;;;;;;3.40;1.10;;;17.60;99.90;;;;;;5009289;28;20631;-78
2021/08/27 06:51:18;;;;;;;2.50;0.80;;;17.70;99.90;;;;;;4989236;28;21199;-78
2021/08/27 06:53:44;;;;;;;2.20;0.80;;;17.70;99.90;;;;;;5003067;28;20554;-78
2021/08/27 06:56:10;;;;;;;3.40;1.47;;;17.80;99.90;;;;;;4986484;28;21199;-78
2021/08/27 06:58:35;;;;;;;2.30;1.20;;;17.90;99.90;;;;;;5028054;28;20178;-79
2021/08/27 07:01:02;;;;;;;2.70;1.03;;;17.90;99.90;;;;;;5028077;28;20194;-80
2021/08/27 07:03:28;;;;;;;4.43;1.97;;;18.00;99.90;;;;;;5000790;28;20181;-80
2021/08/27 07:05:54;;;;;;;3.07;0.93;;;18.00;99.90;;;;;;5016412;28;20943;-80
2021/08/27 07:08:21;;;;;;;3.07;1.00;;;18.00;99.90;;;;;;4998529;28;20625;-79
2021/08/27 07:10:47;;;;;;;2.43;0.93;;;18.10;99.90;;;;;;5016222;28;20604;-80
2021/08/27 07:13:13;;;;;;;3.30;1.27;;;18.10;99.90;;;;;;5016182;28;20652;-79
2021/08/27 07:15:40;;;;;;;4.70;1.13;;;18.10;99.90;;;;;;5019128;28;20569;-80
2021/08/27 07:18:06;;;;;;;5.20;1.30;;;18.10;99.90;;;;;;5001958;28;20608;-81
2021/08/27 07:20:32;;;;;;;2.60;0.90;;;18.10;99.90;;;;;;5020474;28;20609;-78
2021/08/27 07:22:58;;;;;;;3.30;1.10;;;18.10;99.90;;;;;;5014804;28;20576;-78
2021/08/27 07:25:25;;;;;;;2.67;1.30;;;18.10;99.90;;;;;;5013197;28;20631;-79
2021/08/27 07:27:51;;;;;;;3.70;1.53;;;18.10;99.90;;;;;;4996938;28;20212;-79
2021/08/27 07:30:18;;;;;;;2.50;0.90;;;18.20;99.90;;;;;;5014290;28;20696;-79
2021/08/27 07:32:44;;;;;;;5.20;1.00;;;18.20;99.90;;;;;;5014502;28;20332;-79
2021/08/27 07:35:10;;;;;;;3.03;0.93;;;18.30;99.90;;;;;;4996879;28;20627;-79
2021/08/27 07:37:40;;;;;;;2.47;0.93;;;18.30;99.90;;;;;;4997066;28;20553;-80
2021/08/27 07:40:07;;;;;;;2.20;0.90;;;18.30;99.90;;;;;;5015513;28;20600;-79
2021/08/27 07:42:33;;;;;;;3.87;1.10;;;18.40;99.90;;;;;;4994862;28;20972;-80
2021/08/27 07:44:59;;;;;;;1.57;1.10;;;18.40;99.90;;;;;;4986820;28;20662;-79
2021/08/27 07:47:25;;;;;;;3.33;1.00;;;18.40;99.90;;;;;;5002699;28;20589;-79
2021/08/27 07:49:50;;;;;;;3.67;1.00;;;18.40;99.90;;;;;;5005582;28;20259;-78
2021/08/27 07:52:16;;;;;;;2.23;1.07;;;18.50;99.90;;;;;;5014897;28;20171;-78
2021/08/27 07:54:42;;;;;;;2.70;0.97;;;18.50;99.90;;;;;;5006943;28;20166;-78
2021/08/27 07:57:08;;;;;;;1.73;0.77;;;18.60;99.90;;;;;;5003772;28;20427;-79
2021/08/27 07:59:33;;;;;;;3.03;0.80;;;18.60;99.90;;;;;;4986751;28;20182;-78
2021/08/27 08:01:59;;;;;;;3.33;1.13;;;18.60;99.90;;;;;;5005290;28;20196;-79
2021/08/27 08:04:25;;;;;;;2.83;0.97;;;18.60;99.90;;;;;;5012985;28;20177;-78
2021/08/27 08:06:50;;;;;;;2.23;1.27;;;18.60;99.90;;;;;;5010964;28;20166;-78
2021/08/27 08:09:16;;;;;;;2.63;1.00;;;18.60;99.90;;;;;;4993823;28;20198;-78
2021/08/27 08:11:42;;;;;;;3.20;1.33;;;18.60;99.90;;;;;;4993532;28;20253;-78
2021/08/27 08:14:07;;;;;;;6.73;1.20;;;18.60;99.90;;;;;;4976602;28;20167;-78
2021/08/27 08:16:33;;;;;;;5.07;1.00;;;18.60;99.90;;;;;;4993824;28;20199;-79
2021/08/27 08:18:59;;;;;;;2.90;0.90;;;18.60;99.90;;;;;;4993860;28;20665;-79
2021/08/27 08:21:25;;;;;;;2.47;1.10;;;18.60;99.90;;;;;;4993811;28;20703;-78
2021/08/27 08:23:52;;;;;;;3.10;1.20;;;18.60;99.90;;;;;;4993777;28;20183;-78
2021/08/27 08:26:19;;;;;;;5.70;1.53;;;18.60;99.90;;;;;;4976374;28;20183;-78
2021/08/27 08:28:46;;;;;;;1.70;1.10;;;18.70;99.90;;;;;;4976286;28;20637;-79
2021/08/27 08:31:17;;;;;;;3.50;1.20;;;18.70;99.90;;;;;;4994349;28;20606;-78
2021/08/27 08:33:44;;;;;;;3.83;1.57;;;18.90;99.90;;;;;;4998333;28;21029;-77
2021/08/27 08:36:10;;;;;;;4.17;1.10;;;19.10;99.90;;;;;;4993027;28;20570;-77
2021/08/27 08:38:36;;;;;;;4.50;1.20;;;19.30;99.90;;;;;;5019935;28;20583;-77
2021/08/27 08:41:03;;;;;;;3.50;1.27;;;19.50;99.90;;;;;;5026610;28;20190;-77
2021/08/27 08:43:30;;;;;;;3.00;1.10;;;19.70;99.90;;;;;;5013970;28;20189;-77
2021/08/27 08:45:56;;;;;;;3.50;1.40;;;19.90;99.90;;;;;;5011957;28;20577;-77
2021/08/27 08:48:24;;;;;;;2.50;1.00;;;19.90;99.90;;;;;;5011519;28;20625;-78
2021/08/27 08:50:50;;;;;;;4.60;1.03;;;20.00;99.90;;;;;;5012313;28;20609;-78
2021/08/27 08:53:17;;;;;;;2.43;1.03;;;20.00;99.90;;;;;;4995934;28;20669;-78
2021/08/27 08:55:43;;;;;;;3.13;1.00;;;20.00;99.90;;;;;;5031952;28;20576;-78
2021/08/27 08:58:09;;;;;;;4.17;1.00;;;20.00;99.90;;;;;;5032675;28;21190;-78
2021/08/27 09:00:38;;;;;;;3.10;1.33;;;20.10;99.90;;;;;;5032728;28;20728;-78
2021/08/27 09:03:05;;;;;;;2.63;1.23;;;20.10;99.90;;;;;;5016722;28;20611;-78
2021/08/27 09:05:31;;;;;;;2.97;0.93;;;20.20;99.90;;;;;;5032418;28;20572;-77
2021/08/27 09:07:57;;;;;;;2.33;0.90;;;20.30;99.90;;;;;;5033100;28;20662;-76
2021/08/27 09:10:23;;;;;;;3.30;1.43;;;20.50;99.90;;;;;;5036765;28;20193;-77
2021/08/27 09:12:51;;;;;;;3.60;1.00;;;20.70;99.90;;;;;;5016556;28;20177;-76
2021/08/27 09:15:20;;;;;;;3.10;1.00;;;21.40;99.90;;;;;;5033774;28;20607;-77
2021/08/27 09:17:48;;;;;;;4.60;1.20;;;22.20;99.90;;;;;;5034747;28;20967;-77
2021/08/27 09:20:23;;;;;;;2.87;1.27;;;22.80;99.90;;;;;;5034533;28;20632;-76
2021/08/27 09:22:53;;;;;;;2.90;1.00;;;23.10;99.90;;;;;;5034816;28;20909;-75
2021/08/27 09:25:21;;;;;;;2.50;0.80;;;23.40;99.90;;;;;;5031328;28;20571;-75
2021/08/27 09:28:07;;;;;;;2.40;0.90;;;23.50;99.90;;;;;;5031419;28;20571;-75
2021/08/27 09:30:36;;;;;;;5.37;1.07;;;23.50;99.90;;;;;;5030833;28;20591;-75
2021/08/27 09:33:21;;;;;;;2.63;0.70;;;23.50;99.90;;;;;;5031512;28;20568;-75
2021/08/27 09:36:00;;;;;;;2.57;1.20;;;23.40;99.90;;;;;;5013604;28;20580;-76
2021/08/27 09:38:28;;;;;;;1.80;0.83;;;23.20;99.90;;;;;;5031469;28;20626;-76
2021/08/27 09:41:03;;;;;;;2.10;1.10;;;23.10;99.90;;;;;;5031296;28;20599;-76
2021/08/27 09:43:29;;;;;;;2.17;0.80;;;22.90;99.90;;;;;;5031543;28;20924;-76
2021/08/27 09:45:57;;;;;;;1.57;0.80;;;22.60;99.90;;;;;;5004364;28;20569;-76
2021/08/27 09:48:23;;;;;;;2.47;0.90;;;22.30;99.90;;;;;;5011865;28;20284;-74
2021/08/27 09:50:50;;;;;;;2.60;0.80;;;21.90;99.90;;;;;;4994075;28;20591;-74
2021/08/27 09:53:18;;;;;;;1.80;0.80;;;21.60;99.90;;;;;;5011898;28;20925;-77
2021/08/27 09:56:00;;;;;;;1.60;0.73;;;21.30;99.90;;;;;;5011372;28;20554;-74
2021/08/27 09:58:27;;;;;;;2.17;0.80;;;21.00;99.90;;;;;;5011690;28;20569;-75
2021/08/27 10:01:04;;;;;;;2.57;0.80;;;20.80;99.90;;;;;;5011844;28;20607;-75
2021/08/27 10:03:30;;;;;;;3.00;0.80;;;20.70;99.90;;;;;;5011500;28;20572;-74
2021/08/27 10:05:56;;;;;;;2.63;0.90;;;20.60;99.90;;;;;;5015017;28;20960;-75
2021/08/27 10:08:25;;;;;;;3.67;0.80;;;20.80;99.90;;;;;;5015033;28;20612;-75
2021/08/27 10:10:53;;;;;;;4.37;0.90;;;21.30;99.90;;;;;;4997331;28;20201;-75
2021/08/27 10:13:21;;;;;;;2.03;0.70;;;22.30;99.90;;;;;;5014541;28;21144;-74
2021/08/27 10:15:47;;;;;;;2.13;0.70;;;23.30;99.90;;;;;;5014237;28;20593;-75
2021/08/27 10:18:13;;;;;;;3.13;1.00;;;24.20;99.90;;;;;;4979475;28;20672;-77
2021/08/27 10:20:41;;;;;;;1.57;0.70;;;24.70;99.90;;;;;;4979562;28;20613;-75
2021/08/27 10:23:10;;;;;;;1.93;1.00;;;24.90;99.90;;;;;;5017033;28;20569;-75
2021/08/27 10:25:37;;;;;;;2.00;1.17;;;25.00;99.90;;;;;;5014186;28;20573;-76
2021/08/27 10:28:05;;;;;;;3.27;0.83;;;24.90;99.90;;;;;;5013626;28;21185;-75
2021/08/27 10:30:52;;;;;;;3.10;0.70;;;24.60;99.90;;;;;;5014991;28;20609;-75
2021/08/27 10:33:19;;;;;;;4.07;0.87;;;24.10;99.90;;;;;;5014965;28;20569;-76
2021/08/27 10:35:48;;;;;;;6.03;0.90;;;23.70;99.90;;;;;;5014841;28;20569;-75
2021/08/27 10:38:40;;;;;;;1.80;0.70;;;23.30;99.90;;;;;;4997628;28;20577;-75
2021/08/27 10:41:18;;;;;;;2.40;0.80;;;23.10;99.90;;;;;;5014965;28;20615;-76
2021/08/27 10:43:58;;;;;;;2.50;0.77;;;22.80;99.90;;;;;;5014329;28;20584;-76
2021/08/27 10:46:44;;;;;;;1.60;0.80;;;22.80;99.90;;;;;;5014265;28;20920;-76
2021/08/27 10:49:12;;;;;;;2.23;0.90;;;23.00;99.90;;;;;;4980711;28;20719;-76
2021/08/27 10:51:40;;;;;;;2.00;0.70;;;23.40;99.90;;;;;;5014726;28;21197;-76
2021/08/27 10:54:07;;;;;;;3.50;0.90;;;23.70;99.90;;;;;;5014699;28;20605;-75
2021/08/27 10:56:54;;;;;;;2.00;0.87;;;23.90;99.90;;;;;;5014489;28;20565;-76
2021/08/27 10:59:36;;;;;;;4.20;0.90;;;23.90;99.90;;;;;;5001182;28;20590;-76
2021/08/27 11:02:04;;;;;;;2.43;1.13;;;23.80;99.90;;;;;;5015022;28;20632;-76
2021/08/27 11:04:53;;;;;;;2.80;0.80;;;23.80;99.90;;;;;;4997135;28;20627;-76
2021/08/27 11:07:26;;;;;;;2.23;0.70;;;23.70;99.90;;;;;;4970166;28;20643;-76
2021/08/27 11:10:14;;;;;;;6.00;1.30;;;23.60;99.90;;;;;;4998471;28;20633;-76
2021/08/27 11:12:40;;;;;;;1.43;0.70;;;23.40;99.90;;;;;;4995769;28;20585;-75
2021/08/27 11:15:30;;;;;;;2.67;1.17;;;23.30;99.90;;;;;;4994461;28;20586;-76
2021/08/27 11:18:15;;;;;;;1.83;0.70;;;23.10;99.90;;;;;;4977101;28;20577;-78
2021/08/27 11:20:40;;;;;;;2.30;0.70;;;23.00;99.90;;;;;;4997836;28;20715;-76
2021/08/27 11:23:06;;;;;;;1.50;0.70;;;22.80;99.90;;;;;;5016254;28;20731;-76
2021/08/27 11:25:33;;;;;;;2.27;0.60;;;22.60;99.90;;;;;;5032967;28;20584;-75
2021/08/27 11:28:22;;;;;;;1.87;1.00;;;22.50;99.90;;;;;;5002759;28;21053;-74
2021/08/27 11:31:10;;;;;;;1.87;0.60;;;22.50;99.90;;;;;;4997371;28;21075;-75
2021/08/27 11:33:44;;;;;;;2.60;0.70;;;22.60;99.90;;;;;;4863260;29;20592;-75
2021/08/27 11:36:11;;;;;;;3.30;0.93;;;22.90;99.90;;;;;;4837665;29;20601;-75
2021/08/27 11:38:37;;;;;;;2.77;0.80;;;23.20;99.90;;;;;;4746044;30;20590;-76
2021/08/27 11:41:04;;;;;;;2.00;0.70;;;23.40;99.90;;;;;;4763311;29;20615;-76
2021/08/27 11:43:58;;;;;;;1.63;0.67;;;23.50;99.90;;;;;;4609510;30;53192;-76
2021/08/27 11:46:26;;;;;;;1.20;0.63;;;23.60;99.90;;;;;;4305032;32;20641;-76
2021/08/27 11:48:59;;;;;;;1.97;0.60;;;23.70;99.90;;;;;;4211153;33;45747;-77
2021/08/27 11:51:33;;;;;;;1.97;0.70;;;23.70;99.90;;;;;;4105770;34;20672;-76
2021/08/27 11:54:16;;;;;;;1.90;0.60;;;23.70;99.90;;;;;;4097407;34;21039;-76
2021/08/27 11:56:47;;;;;;;2.17;0.70;;;23.60;99.90;;;;;;4096930;34;20621;-75
2021/08/27 11:59:22;;;;;;;2.13;0.60;;;23.50;99.90;;;;;;4097130;34;20620;-76
2021/08/27 12:01:48;;;;;;;2.40;0.80;;;23.20;99.90;;;;;;4096884;34;20656;-75
2021/08/27 12:04:30;;;;;;;2.67;0.70;;;23.10;99.90;;;;;;4097168;34;20625;-75
2021/08/27 12:07:10;;;;;;;2.57;0.70;;;22.90;99.90;;;;;;4096656;34;20581;-75
2021/08/27 12:09:36;;;;;;;4.10;0.70;;;22.90;99.90;;;;;;4096973;34;20771;-75
2021/08/27 12:12:03;;;;;;;2.43;0.90;;;22.90;99.90;;;;;;4117986;34;20651;-75
2021/08/27 12:14:49;;;;;;;2.23;0.60;;;22.90;99.90;;;;;;4100396;35;20617;-75
2021/08/27 12:17:23;;;;;;;1.20;0.50;;;22.90;99.90;;;;;;4117585;34;20631;-75
2021/08/27 12:19:51;;;;;;;5.50;1.10;;;22.90;99.90;;;;;;4117740;34;20607;-75
2021/08/27 12:22:21;;;;;;;1.57;0.70;;;23.00;99.90;;;;;;4096682;34;20993;-75
2021/08/27 12:24:48;;;;;;;2.57;0.87;;;23.20;99.90;;;;;;4117549;34;20624;-75
2021/08/27 12:27:14;;;;;;;2.67;0.80;;;23.50;99.90;;;;;;4096168;34;20704;-75
2021/08/27 12:29:40;;;;;;;2.17;0.70;;;23.90;99.90;;;;;;4129500;34;20675;-75
2021/08/27 12:32:07;;;;;;;3.00;1.00;;;24.10;99.90;;;;;;4109455;34;20651;-75
2021/08/27 12:34:33;;;;;;;2.63;0.70;;;24.30;99.90;;;;;;4109602;34;20631;-75
2021/08/27 12:36:59;;;;;;;3.50;0.90;;;24.30;99.90;;;;;;4109533;34;21187;-75
2021/08/27 12:39:24;;;;;;;1.93;0.77;;;24.00;99.90;;;;;;4109872;34;20565;-75
2021/08/27 12:41:50;;;;;;;1.77;0.77;;;23.60;99.90;;;;;;4108451;34;20725;-75
2021/08/27 12:44:17;;;;;;;2.27;0.60;;;23.10;99.90;;;;;;4190565;33;20621;-74
2021/08/27 12:46:48;;;;;;;2.37;0.70;;;22.60;99.90;;;;;;4297268;32;46540;-75
2021/08/27 12:49:21;;;;;;;5.30;0.90;;;22.10;99.90;;;;;;4384184;32;20697;-74
2021/08/27 12:51:50;;;;;;;1.87;0.80;;;21.60;99.90;;;;;;4409798;32;20649;-75
2021/08/27 12:54:17;;;;;;;2.50;0.70;;;21.20;99.90;;;;;;4432335;32;20711;-75
2021/08/27 12:56:59;;;;;;;1.50;0.63;;;20.90;99.90;;;;;;4433693;32;20620;-74